Time;durP1;ratioP1;P1;durP2;ratioP2;P2;SDS_P1;SDS_P2;PMS_P1;PMS_P2;Temp;Humidity;BMP_temperature;BMP_pressure;BME280_temperature;BME280_humidity;BME280_pressure;Samples;Min_cycle;Max_cycle;Signal;HPM_P1;HPM_P2
2023/06/04 09:15:45;;;;;;;6.90;1.25;;;19.50;99.70;;;;;;5112888;27;20104;-80
2023/06/04 09:18:14;;;;;;;7.40;1.45;;;19.30;99.90;;;;;;5065464;28;20153;-81
2023/06/04 09:20:40;;;;;;;14.65;4.93;;;19.70;99.90;;;;;;5061809;28;20048;-82
2023/06/04 09:23:17;;;;;;;39.03;24.70;;;19.50;99.90;;;;;;5070833;28;20044;-84
2023/06/04 09:25:43;;;;;;;27.00;15.35;;;19.60;99.90;;;;;;5087264;28;20559;-84
2023/06/04 09:28:13;;;;;;;80.03;49.60;;;19.70;99.90;;;;;;5092264;28;20048;-85
2023/06/04 09:30:51;;;;;;;40.90;34.63;;;19.80;99.90;;;;;;5092964;28;20044;-85
2023/06/04 09:33:24;;;;;;;73.57;66.22;;;20.00;99.90;;;;;;5106105;28;20039;-85
2023/06/04 09:35:55;;;;;;;41.47;37.27;;;20.10;99.90;;;;;;5075251;28;20044;-85
2023/06/04 09:38:22;;;;;;;38.53;35.08;;;20.10;99.90;;;;;;5083588;28;20293;-88
2023/06/04 09:40:49;;;;;;;52.17;47.25;;;20.10;99.90;;;;;;5087115;28;20044;-85
2023/06/04 09:43:41;;;;;;;61.20;55.88;;;20.10;99.90;;;;;;5098479;28;20713;-81
2023/06/04 09:46:15;;;;;;;51.47;38.20;;;20.20;99.90;;;;;;5065464;28;20127;-83
2023/06/04 09:48:42;;;;;;;17.65;13.18;;;20.20;99.80;;;;;;5087227;28;20487;-83
2023/06/04 09:51:08;;;;;;;15.05;6.65;;;20.20;99.90;;;;;;5105543;28;20036;-83
2023/06/04 09:53:42;;;;;;;8.05;4.57;;;20.20;99.90;;;;;;5080318;28;20104;-83
2023/06/04 09:56:08;;;;;;;9.05;6.63;;;20.20;99.60;;;;;;5080245;28;20044;-82
2023/06/04 09:58:35;;;;;;;9.82;6.40;;;20.20;99.90;;;;;;5071808;28;20080;-82
2023/06/04 10:01:04;;;;;;;6.60;3.03;;;20.20;99.90;;;;;;5087560;28;20043;-84
2023/06/04 10:03:36;;;;;;;6.63;4.15;;;20.30;99.90;;;;;;5089052;28;20054;-83
2023/06/04 10:06:05;;;;;;;4.55;1.45;;;20.30;99.70;;;;;;5087640;28;20501;-83
2023/06/04 10:08:33;;;;;;;10.20;4.03;;;20.40;99.90;;;;;;5086374;28;20040;-83
2023/06/04 10:11:05;;;;;;;8.73;2.60;;;20.40;99.40;;;;;;5092457;28;20086;-80
2023/06/04 10:13:39;;;;;;;6.07;2.20;;;20.50;99.20;;;;;;5075649;28;20044;-80
2023/06/04 10:16:06;;;;;;;7.28;3.38;;;20.50;99.20;;;;;;5083047;28;20273;-80
2023/06/04 10:18:34;;;;;;;5.07;2.25;;;20.60;99.40;;;;;;5083709;28;20119;-81
2023/06/04 10:21:03;;;;;;;5.65;2.60;;;20.60;99.30;;;;;;5106341;28;20032;-95
2023/06/04 10:23:35;;;;;;;5.90;2.70;;;20.70;99.10;;;;;;5097459;22;20036;-96
2023/06/04 10:26:02;;;;;;;5.30;2.15;;;20.80;99.30;;;;;;5051922;28;20496;-89
2023/06/04 10:28:29;;;;;;;5.03;3.03;;;20.90;99.10;;;;;;5023731;28;20045;-83
2023/06/04 10:30:55;;;;;;;6.50;2.17;;;21.00;99.40;;;;;;5031515;28;20032;-83
2023/06/04 10:33:23;;;;;;;5.28;2.03;;;21.10;99.30;;;;;;5016335;28;20065;-82
2023/06/04 10:35:55;;;;;;;8.13;2.70;;;21.20;98.90;;;;;;5035291;28;20424;-82
2023/06/04 10:38:22;;;;;;;5.57;1.30;;;21.30;98.70;;;;;;5019387;28;20049;-82
2023/06/04 10:40:48;;;;;;;4.10;1.50;;;21.30;98.50;;;;;;5027890;28;20045;-81
2023/06/04 10:43:17;;;;;;;4.57;1.65;;;21.30;98.60;;;;;;5029684;28;20025;-82
2023/06/04 10:45:44;;;;;;;6.47;1.35;;;21.30;98.10;;;;;;5045938;28;20049;-82
2023/06/04 10:48:11;;;;;;;4.25;1.23;;;21.50;98.10;;;;;;5025694;28;20064;-83
2023/06/04 10:50:52;;;;;;;4.55;1.40;;;21.50;98.00;;;;;;5011140;28;20066;-83
2023/06/04 10:53:19;;;;;;;6.18;1.80;;;21.70;98.20;;;;;;5035714;28;20057;-83
2023/06/04 10:55:46;;;;;;;5.45;1.73;;;21.70;97.90;;;;;;5015517;28;20053;-83
2023/06/04 10:58:12;;;;;;;5.20;1.92;;;21.70;97.60;;;;;;5030130;28;20034;-83
2023/06/04 11:00:42;;;;;;;5.57;1.88;;;21.70;97.80;;;;;;5033098;28;20099;-83
2023/06/04 11:03:10;;;;;;;3.63;1.25;;;21.80;97.00;;;;;;5030120;28;20057;-83
2023/06/04 11:05:43;;;;;;;5.28;1.83;;;21.80;97.60;;;;;;5035910;28;20629;-83
2023/06/04 11:08:11;;;;;;;7.40;1.75;;;21.90;97.80;;;;;;5025164;28;20044;-83
2023/06/04 11:10:46;;;;;;;4.32;1.60;;;22.10;97.50;;;;;;5016475;28;20037;-83
2023/06/04 11:13:12;;;;;;;4.28;1.40;;;22.10;97.90;;;;;;5032630;28;20460;-83
2023/06/04 11:15:39;;;;;;;4.32;1.70;;;22.10;97.30;;;;;;5031548;28;20120;-83
2023/06/04 11:18:05;;;;;;;7.72;1.67;;;22.00;97.60;;;;;;5030881;28;20052;-83
2023/06/04 11:20:30;;;;;;;4.15;1.73;;;22.10;97.50;;;;;;5034541;28;20037;-83
2023/06/04 11:22:59;;;;;;;4.75;1.38;;;22.10;97.80;;;;;;5019610;28;20048;-83
2023/06/04 11:25:26;;;;;;;5.43;1.40;;;22.30;96.80;;;;;;5030580;28;20040;-83
2023/06/04 11:27:53;;;;;;;7.72;1.77;;;22.30;97.50;;;;;;5036095;28;20052;-83
2023/06/04 11:30:20;;;;;;;4.20;1.10;;;22.30;97.30;;;;;;5012896;28;20120;-83
2023/06/04 11:32:46;;;;;;;6.72;1.70;;;22.40;97.20;;;;;;5030878;28;20488;-83
2023/06/04 11:35:12;;;;;;;6.43;1.65;;;22.40;97.10;;;;;;5034770;28;20077;-83
2023/06/04 11:37:38;;;;;;;4.80;1.30;;;22.50;96.90;;;;;;5032333;28;20084;-83
2023/06/04 11:40:26;;;;;;;4.95;1.70;;;22.60;96.70;;;;;;5034848;28;20112;-83
2023/06/04 11:42:52;;;;;;;2.63;1.17;;;22.60;97.50;;;;;;5043993;28;20035;-83
2023/06/04 11:45:20;;;;;;;5.82;1.60;;;22.70;95.70;;;;;;5034436;28;20596;-83
2023/06/04 11:47:56;;;;;;;3.80;1.38;;;22.60;96.20;;;;;;5030028;28;20042;-83
2023/06/04 11:50:28;;;;;;;5.32;1.50;;;22.70;96.50;;;;;;5033214;28;20041;-83
2023/06/04 11:52:55;;;;;;;4.75;1.40;;;22.80;96.80;;;;;;5032224;28;20077;-83
2023/06/04 11:55:21;;;;;;;5.18;1.35;;;22.80;96.80;;;;;;5030798;28;20037;-83
2023/06/04 11:57:48;;;;;;;5.70;1.50;;;22.80;96.30;;;;;;5037893;28;20037;-83
2023/06/04 12:00:15;;;;;;;5.00;1.38;;;22.90;96.60;;;;;;5030219;28;20037;-83
2023/06/04 12:02:53;;;;;;;3.17;1.20;;;22.90;96.30;;;;;;5033738;28;20073;-83
2023/06/04 12:05:22;;;;;;;5.47;1.50;;;23.00;94.60;;;;;;5029703;28;20075;-83
2023/06/04 12:07:50;;;;;;;2.53;1.10;;;23.10;96.40;;;;;;5034181;28;20034;-83
2023/06/04 12:10:20;;;;;;;3.78;1.25;;;23.20;96.70;;;;;;5040772;28;20116;-83
2023/06/04 12:12:46;;;;;;;3.58;1.60;;;23.30;96.80;;;;;;5029667;28;20546;-83
2023/06/04 12:15:19;;;;;;;3.88;1.30;;;23.40;95.70;;;;;;5034008;28;20080;-83
2023/06/04 12:17:54;;;;;;;5.95;1.30;;;23.40;95.60;;;;;;5012208;28;20095;-83
2023/06/04 12:20:37;;;;;;;4.20;1.35;;;23.40;95.20;;;;;;5035697;28;20044;-83
2023/06/04 12:23:04;;;;;;;2.92;1.08;;;23.40;95.80;;;;;;5035237;28;20061;-83
2023/06/04 12:25:30;;;;;;;4.93;1.45;;;23.50;96.20;;;;;;5029528;28;20144;-83
2023/06/04 12:27:56;;;;;;;5.07;1.55;;;23.50;96.00;;;;;;5039537;28;21946;-83
2023/06/04 12:30:23;;;;;;;4.15;1.45;;;23.60;95.90;;;;;;5029547;28;20044;-83
2023/06/04 12:32:50;;;;;;;6.78;1.50;;;23.60;96.00;;;;;;5016459;28;20041;-83
2023/06/04 12:35:16;;;;;;;3.85;1.48;;;23.70;96.20;;;;;;5031065;28;20099;-83
2023/06/04 12:37:42;;;;;;;5.85;1.52;;;23.70;95.20;;;;;;5029645;28;20041;-83
2023/06/04 12:40:08;;;;;;;4.50;1.52;;;23.70;95.40;;;;;;5034956;28;20037;-83
2023/06/04 12:42:34;;;;;;;5.45;1.73;;;23.70;95.10;;;;;;5042737;28;20048;-83
2023/06/04 12:45:00;;;;;;;6.45;1.75;;;23.70;95.40;;;;;;5042581;28;20058;-83
2023/06/04 12:47:25;;;;;;;4.35;1.70;;;23.70;96.00;;;;;;5028686;28;20136;-83
2023/06/04 12:49:52;;;;;;;3.40;1.42;;;23.70;95.50;;;;;;5031347;28;20420;-83
2023/06/04 12:52:17;;;;;;;4.72;1.20;;;23.80;95.90;;;;;;5034710;28;20048;-82
2023/06/04 12:54:43;;;;;;;4.70;1.60;;;23.80;95.40;;;;;;5031809;28;20038;-83
2023/06/04 12:57:09;;;;;;;3.65;1.30;;;23.80;95.10;;;;;;5034382;28;20037;-83
2023/06/04 12:59:35;;;;;;;4.18;1.40;;;23.80;95.50;;;;;;5035622;28;20037;-83
2023/06/04 13:02:00;;;;;;;3.22;1.23;;;23.80;95.30;;;;;;5028213;28;20041;-83
2023/06/04 13:04:26;;;;;;;5.55;1.40;;;23.90;95.60;;;;;;5032938;28;20082;-83
2023/06/04 13:06:55;;;;;;;4.90;1.23;;;23.90;95.20;;;;;;5029127;28;20455;-83
2023/06/04 13:09:22;;;;;;;4.47;1.30;;;23.90;94.80;;;;;;5034109;28;20048;-83
2023/06/04 13:11:48;;;;;;;5.22;1.50;;;23.90;94.80;;;;;;5040438;28;20045;-83
2023/06/04 13:14:14;;;;;;;4.50;1.20;;;24.00;95.40;;;;;;5035576;28;20392;-83
2023/06/04 13:16:39;;;;;;;3.13;1.15;;;24.10;95.70;;;;;;5028279;28;20046;-83
2023/06/04 13:19:06;;;;;;;4.38;1.40;;;24.20;95.20;;;;;;5030524;28;20358;-83
2023/06/04 13:21:32;;;;;;;6.60;1.40;;;24.20;94.50;;;;;;5030689;28;20037;-83
2023/06/04 13:23:58;;;;;;;6.40;1.50;;;24.20;94.20;;;;;;5031748;28;20504;-84
2023/06/04 13:26:23;;;;;;;4.18;1.40;;;24.10;94.40;;;;;;5028506;28;20044;-83
2023/06/04 13:28:49;;;;;;;5.50;1.38;;;24.10;94.80;;;;;;5031231;28;20052;-86
2023/06/04 13:31:15;;;;;;;2.45;1.17;;;24.20;94.90;;;;;;5032574;28;20041;-88
2023/06/04 13:33:41;;;;;;;3.40;1.10;;;24.20;94.60;;;;;;5036082;28;20042;-86
2023/06/04 13:36:07;;;;;;;5.18;1.40;;;24.30;94.80;;;;;;5015322;28;20099;-83
2023/06/04 13:38:32;;;;;;;3.35;1.20;;;24.40;94.30;;;;;;5031273;28;20065;-84
2023/06/04 13:40:58;;;;;;;6.57;1.33;;;24.40;94.50;;;;;;5017463;28;20040;-87
2023/06/04 13:43:24;;;;;;;4.47;1.30;;;24.40;93.90;;;;;;5033556;28;20037;-86
2023/06/04 13:45:50;;;;;;;3.42;1.42;;;24.40;94.30;;;;;;5031416;28;20040;-87
2023/06/04 13:48:16;;;;;;;4.40;1.30;;;24.40;94.70;;;;;;5031235;28;20119;-87
2023/06/04 13:50:41;;;;;;;4.32;1.65;;;24.50;94.80;;;;;;5033598;28;20155;-87
2023/06/04 13:53:10;;;;;;;5.68;1.30;;;24.50;94.60;;;;;;5036136;28;20047;-93
2023/06/04 13:55:36;;;;;;;6.05;1.27;;;24.50;93.80;;;;;;5036681;28;20049;-87
2023/06/04 13:58:02;;;;;;;4.35;1.20;;;24.40;93.40;;;;;;5029761;28;21732;-89
2023/06/04 14:00:29;;;;;;;6.38;1.33;;;24.10;93.60;;;;;;5028634;28;20488;-86
2023/06/04 14:02:55;;;;;;;8.05;1.63;;;24.00;93.60;;;;;;5019719;28;20045;-89
2023/06/04 14:05:22;;;;;;;5.82;1.33;;;23.70;93.30;;;;;;5035980;28;20530;-86
2023/06/04 14:07:47;;;;;;;10.73;1.80;;;23.60;93.70;;;;;;5034578;28;20048;-82
2023/06/04 14:10:13;;;;;;;7.88;1.48;;;23.60;94.30;;;;;;5041037;28;20045;-82
2023/06/04 14:12:43;;;;;;;5.38;1.40;;;23.70;94.00;;;;;;5015318;28;20037;-90
2023/06/04 14:15:11;;;;;;;6.82;1.30;;;23.80;93.80;;;;;;5037462;28;20041;-88
2023/06/04 14:17:38;;;;;;;8.60;1.83;;;23.70;94.00;;;;;;5038924;28;20038;-85
2023/06/04 14:20:08;;;;;;;4.60;1.60;;;23.70;94.40;;;;;;5035237;28;20045;-85
2023/06/04 14:22:37;;;;;;;5.75;1.63;;;23.70;94.20;;;;;;5036175;28;20052;-87
2023/06/04 14:25:04;;;;;;;10.25;1.63;;;23.60;94.40;;;;;;5023260;28;20048;-83
2023/06/04 14:27:30;;;;;;;3.90;1.40;;;23.60;94.30;;;;;;5039899;28;20141;-83
2023/06/04 14:29:56;;;;;;;6.78;1.50;;;23.50;94.40;;;;;;5031958;28;20132;-86
2023/06/04 14:32:22;;;;;;;6.30;1.25;;;23.30;94.50;;;;;;5032501;28;20041;-85
2023/06/04 14:34:47;;;;;;;5.40;1.40;;;23.30;94.70;;;;;;5015584;28;20038;-83
2023/06/04 14:37:13;;;;;;;3.55;1.30;;;23.20;94.40;;;;;;5033568;28;20034;-83
2023/06/04 14:39:38;;;;;;;5.88;1.45;;;23.20;94.80;;;;;;5035755;28;20038;-83
2023/06/04 14:42:05;;;;;;;5.45;1.45;;;23.30;94.90;;;;;;5038726;28;20061;-83
2023/06/04 14:44:30;;;;;;;4.20;1.45;;;23.30;95.00;;;;;;5033864;28;20116;-85
2023/06/04 14:46:56;;;;;;;4.18;1.30;;;23.30;94.60;;;;;;5038540;28;20125;-84
2023/06/04 14:49:21;;;;;;;4.38;1.30;;;23.20;94.30;;;;;;5037621;28;20451;-87
2023/06/04 14:51:47;;;;;;;5.55;1.50;;;23.20;94.40;;;;;;5040672;28;20038;-90
2023/06/04 14:54:13;;;;;;;5.07;1.40;;;23.10;94.50;;;;;;5031675;28;20033;-83
2023/06/04 14:56:38;;;;;;;5.28;1.35;;;22.80;94.30;;;;;;5033063;28;20037;-88
2023/06/04 14:59:08;;;;;;;4.45;1.25;;;22.70;94.70;;;;;;5038854;28;20039;-88
2023/06/04 15:01:41;;;;;;;6.70;1.48;;;22.70;94.80;;;;;;5036035;28;20133;-90
2023/06/04 15:04:08;;;;;;;8.32;1.70;;;22.50;94.80;;;;;;5031516;28;20064;-85
2023/06/04 15:06:33;;;;;;;7.07;1.20;;;22.40;95.00;;;;;;5034935;28;20045;-93
2023/06/04 15:08:59;;;;;;;5.13;1.60;;;22.20;95.30;;;;;;5034674;28;20055;-87
2023/06/04 15:11:25;;;;;;;6.70;1.60;;;22.20;95.30;;;;;;5019611;28;20128;-90
2023/06/04 15:13:52;;;;;;;6.88;1.45;;;22.20;95.50;;;;;;5036633;28;20132;-88
2023/06/04 15:16:18;;;;;;;4.35;1.30;;;22.20;95.50;;;;;;5037729;28;20041;-91
2023/06/04 15:18:43;;;;;;;3.72;1.30;;;22.20;95.30;;;;;;5031896;28;20040;-90
2023/06/04 15:21:09;;;;;;;5.35;1.45;;;22.10;95.20;;;;;;5013628;28;20499;-90
2023/06/04 15:23:35;;;;;;;4.60;1.25;;;21.90;95.30;;;;;;5037027;28;20049;-88
2023/06/04 15:26:00;;;;;;;5.95;1.20;;;21.90;95.50;;;;;;5034136;28;20052;-89
2023/06/04 15:28:26;;;;;;;6.10;1.63;;;21.70;95.00;;;;;;5019701;28;20037;-92
2023/06/04 15:30:51;;;;;;;4.40;1.23;;;21.50;95.50;;;;;;5038656;28;20530;-88
2023/06/04 15:33:17;;;;;;;5.72;1.52;;;21.30;95.60;;;;;;5040410;28;20040;-89
2023/06/04 15:35:43;;;;;;;4.30;1.38;;;21.20;95.60;;;;;;5040570;28;20037;-90
2023/06/04 15:38:08;;;;;;;4.80;1.40;;;21.20;95.80;;;;;;5033160;28;20037;-92
2023/06/04 15:40:34;;;;;;;6.40;1.42;;;21.20;96.00;;;;;;5033173;28;20037;-92
2023/06/04 15:43:00;;;;;;;5.03;1.30;;;21.20;95.90;;;;;;5017883;28;20116;-89
2023/06/04 15:45:25;;;;;;;5.88;1.30;;;21.10;95.90;;;;;;5019616;28;20076;-92
2023/06/04 15:47:51;;;;;;;5.75;1.55;;;21.00;95.90;;;;;;5023154;28;20041;-90
2023/06/04 15:50:17;;;;;;;4.95;1.65;;;21.00;96.20;;;;;;5035186;28;20044;-91
2023/06/04 15:52:44;;;;;;;4.65;1.33;;;21.00;96.60;;;;;;5036833;28;20492;-91
2023/06/04 15:55:09;;;;;;;6.90;1.30;;;21.00;96.50;;;;;;5034998;28;20087;-91
2023/06/04 15:57:35;;;;;;;3.78;1.20;;;21.20;96.70;;;;;;5031678;28;20041;-91
2023/06/04 16:00:00;;;;;;;3.33;1.33;;;21.40;96.50;;;;;;5040254;28;20037;-92
2023/06/04 16:02:26;;;;;;;3.95;1.20;;;21.50;96.50;;;;;;5043417;28;20045;-94
2023/06/04 16:04:51;;;;;;;7.00;1.58;;;21.60;96.10;;;;;;5023257;28;20162;-85
2023/06/04 16:07:17;;;;;;;3.70;1.73;;;21.60;96.10;;;;;;5024338;28;20032;-92
2023/06/04 16:09:43;;;;;;;6.32;1.63;;;21.50;95.90;;;;;;5022831;28;20464;-92
2023/06/04 16:12:08;;;;;;;6.40;1.45;;;21.30;96.30;;;;;;5019365;28;20041;-92
2023/06/04 16:14:34;;;;;;;4.57;1.88;;;21.30;96.20;;;;;;5038535;28;20396;-93
2023/06/04 16:16:59;;;;;;;5.28;1.75;;;21.20;96.40;;;;;;5019463;28;20052;-92
2023/06/04 16:19:25;;;;;;;3.63;1.60;;;21.00;96.40;;;;;;5019478;28;20046;-92
2023/06/04 16:21:50;;;;;;;6.30;2.25;;;20.90;96.70;;;;;;5035520;28;20051;-91
2023/06/04 16:24:16;;;;;;;6.88;2.17;;;20.90;96.80;;;;;;5026934;28;20110;-91
2023/06/04 16:26:42;;;;;;;5.68;1.50;;;20.90;96.50;;;;;;5014512;28;20045;-91
2023/06/04 16:29:07;;;;;;;5.18;1.83;;;21.00;96.60;;;;;;5033822;28;20400;-92
2023/06/04 16:31:33;;;;;;;4.00;1.60;;;20.90;96.60;;;;;;5018265;28;20037;-92
2023/06/04 16:33:58;;;;;;;5.88;1.90;;;20.80;96.70;;;;;;5036491;28;20616;-92
2023/06/04 16:36:25;;;;;;;5.35;1.45;;;20.80;96.80;;;;;;5038569;28;20506;-91
2023/06/04 16:38:51;;;;;;;5.07;1.65;;;20.80;96.80;;;;;;5022095;28;20044;-92
2023/06/04 16:41:17;;;;;;;5.50;1.70;;;20.80;96.60;;;;;;5013912;28;20049;-92
2023/06/04 16:43:42;;;;;;;8.38;1.70;;;20.80;96.80;;;;;;5019689;28;20045;-92
2023/06/04 16:46:08;;;;;;;4.63;1.52;;;20.90;96.70;;;;;;5034418;28;20038;-91
2023/06/04 16:48:33;;;;;;;5.70;1.85;;;20.90;96.50;;;;;;5048573;28;20041;-88
2023/06/04 16:50:59;;;;;;;7.88;1.60;;;20.80;96.60;;;;;;5029533;28;20048;-90
2023/06/04 16:53:25;;;;;;;3.72;1.65;;;20.70;96.60;;;;;;5018359;28;20567;-90
2023/06/04 16:55:50;;;;;;;4.65;1.52;;;20.60;96.30;;;;;;5033975;28;20496;-90
2023/06/04 16:58:16;;;;;;;6.32;1.75;;;20.60;96.90;;;;;;5032676;28;20045;-90
2023/06/04 17:00:41;;;;;;;7.50;1.92;;;20.50;96.70;;;;;;5039637;28;20392;-90
2023/06/04 17:03:07;;;;;;;3.80;1.58;;;20.50;96.60;;;;;;5038692;28;20037;-90
2023/06/04 17:05:33;;;;;;;6.43;1.98;;;20.40;96.80;;;;;;5037471;28;20041;-90
2023/06/04 17:07:58;;;;;;;5.93;2.47;;;20.40;96.90;;;;;;5030237;28;20103;-91
2023/06/04 17:10:33;;;;;;;5.93;1.42;;;20.30;96.90;;;;;;5030120;28;20056;-90
2023/06/04 17:13:00;;;;;;;3.90;1.63;;;20.30;96.80;;;;;;5030065;28;20038;-89
2023/06/04 17:15:27;;;;;;;5.68;2.10;;;20.30;96.90;;;;;;5039881;28;20128;-89
2023/06/04 17:17:54;;;;;;;5.95;1.63;;;20.20;97.00;;;;;;5035530;28;20120;-90
2023/06/04 17:20:20;;;;;;;6.82;1.65;;;20.30;97.10;;;;;;5012841;28;20087;-91
2023/06/04 17:22:46;;;;;;;4.20;1.48;;;20.20;96.80;;;;;;5022771;28;20052;-91
2023/06/04 17:25:11;;;;;;;5.00;1.80;;;20.20;96.70;;;;;;5014434;28;20108;-91
2023/06/04 17:27:37;;;;;;;5.65;1.40;;;20.10;96.80;;;;;;5024810;28;20056;-90
2023/06/04 17:30:03;;;;;;;5.25;1.67;;;20.00;97.30;;;;;;5034741;28;20068;-89
2023/06/04 17:32:28;;;;;;;6.25;1.55;;;20.00;97.30;;;;;;5014885;28;20133;-89
2023/06/04 17:34:54;;;;;;;4.80;1.42;;;19.80;97.30;;;;;;5016874;28;20041;-89
2023/06/04 17:37:20;;;;;;;4.18;1.70;;;19.80;97.50;;;;;;5020869;28;20040;-89
2023/06/04 17:39:45;;;;;;;3.58;1.35;;;19.70;97.70;;;;;;5021452;28;20128;-89
2023/06/04 17:42:11;;;;;;;4.30;1.73;;;19.70;97.70;;;;;;5020509;28;20451;-92
2023/06/04 17:44:36;;;;;;;9.80;2.00;;;19.60;97.70;;;;;;5014646;28;20459;-91
2023/06/04 17:47:05;;;;;;;3.75;1.73;;;19.50;97.70;;;;;;5027634;28;20048;-93
2023/06/04 17:49:31;;;;;;;6.85;1.70;;;19.50;98.10;;;;;;5017945;28;20048;-88
2023/06/04 17:52:01;;;;;;;5.57;1.80;;;19.50;98.10;;;;;;5048720;28;20102;-89
2023/06/04 17:54:31;;;;;;;5.93;1.80;;;19.50;98.30;;;;;;5043421;28;20041;-90
2023/06/04 17:56:57;;;;;;;5.10;1.70;;;19.40;98.50;;;;;;5036585;28;20038;-91
2023/06/04 17:59:23;;;;;;;4.20;1.75;;;19.40;98.30;;;;;;5018398;28;20074;-91
2023/06/04 18:01:50;;;;;;;4.03;1.83;;;19.50;98.50;;;;;;5035034;28;20116;-89
2023/06/04 18:04:17;;;;;;;5.68;1.80;;;19.20;98.50;;;;;;5019306;28;20045;-89
2023/06/04 18:06:43;;;;;;;7.05;1.70;;;19.10;98.70;;;;;;5027380;28;20041;-90
2023/06/04 18:09:09;;;;;;;6.50;2.05;;;19.10;98.50;;;;;;5019395;28;20041;-88
2023/06/04 18:11:40;;;;;;;6.10;1.90;;;19.00;98.70;;;;;;5021181;28;20129;-94
2023/06/04 18:19:30;;;;;;;3.83;1.80;;;18.80;99.10;;;;;;5957429;22;20038;-89
2023/06/04 18:28:07;;;;;;;5.63;2.00;;;18.60;99.70;;;;;;6045135;22;20238;31
2023/06/04 18:30:34;;;;;;;6.53;1.95;;;18.50;99.90;;;;;;4943412;28;20058;-91
2023/06/04 18:32:59;;;;;;;5.63;1.85;;;18.40;99.70;;;;;;4960302;28;20047;-90
2023/06/04 18:35:25;;;;;;;4.45;2.10;;;18.30;99.90;;;;;;4956993;28;20110;-93
2023/06/04 18:37:51;;;;;;;6.65;2.33;;;18.20;99.90;;;;;;4976684;28;20055;-88
2023/06/04 18:40:17;;;;;;;5.78;2.47;;;18.20;99.90;;;;;;4952397;28;20039;-88
2023/06/04 18:42:46;;;;;;;5.68;2.33;;;18.20;99.90;;;;;;4963418;28;20038;-85
2023/06/04 18:45:15;;;;;;;3.63;2.00;;;18.20;99.90;;;;;;4954912;28;20125;-85
2023/06/04 18:47:42;;;;;;;6.18;2.22;;;18.00;99.90;;;;;;4970129;28;20102;-87
2023/06/04 18:50:11;;;;;;;5.40;2.33;;;18.00;99.90;;;;;;4950520;28;20042;-85
2023/06/04 18:52:42;;;;;;;8.43;2.75;;;17.90;99.90;;;;;;4938084;28;20042;-86
2023/06/04 18:55:08;;;;;;;6.97;2.13;;;17.70;99.90;;;;;;4966518;28;20031;-87
2023/06/04 18:57:35;;;;;;;4.90;2.13;;;17.60;99.90;;;;;;4974627;28;20043;-88
2023/06/04 19:00:07;;;;;;;8.13;2.17;;;17.50;99.90;;;;;;4947511;28;20047;-89
2023/06/04 19:02:35;;;;;;;6.75;2.70;;;17.50;99.90;;;;;;4964278;28;20035;-89
2023/06/04 19:05:00;;;;;;;6.55;2.10;;;17.60;99.90;;;;;;4934497;28;20447;-90
2023/06/04 19:07:26;;;;;;;6.15;2.47;;;17.60;99.90;;;;;;4951976;28;20122;-89
2023/06/04 19:09:52;;;;;;;5.32;2.50;;;17.50;99.90;;;;;;4974806;28;20067;-91
2023/06/04 19:12:18;;;;;;;4.95;1.83;;;17.30;99.90;;;;;;4973633;28;20155;-88
2023/06/04 19:14:43;;;;;;;5.63;2.92;;;17.30;99.90;;;;;;4973597;28;20049;-87
2023/06/04 19:17:17;;;;;;;9.82;3.28;;;17.20;99.90;;;;;;4964202;28;20039;-88
2023/06/04 19:19:43;;;;;;;5.95;2.67;;;17.10;99.90;;;;;;4955823;28;20046;-87
2023/06/04 19:22:09;;;;;;;5.07;2.65;;;17.10;99.90;;;;;;4969430;28;20034;-88
2023/06/04 19:24:35;;;;;;;5.95;2.70;;;17.00;99.90;;;;;;4969095;28;20043;-88
2023/06/04 19:27:00;;;;;;;6.13;3.05;;;16.90;99.90;;;;;;4970762;28;20092;-88
2023/06/04 19:29:26;;;;;;;7.43;2.60;;;16.80;99.90;;;;;;4956238;28;20054;-85
2023/06/04 19:31:52;;;;;;;7.80;2.83;;;16.70;99.90;;;;;;4970219;28;20034;-86
2023/06/04 19:34:17;;;;;;;7.03;2.47;;;16.70;99.90;;;;;;4979127;28;20079;-85
2023/06/04 19:36:44;;;;;;;6.30;2.55;;;16.60;99.90;;;;;;4977177;28;20423;-87
2023/06/04 19:39:09;;;;;;;5.78;2.60;;;16.50;99.90;;;;;;4980208;28;20094;-86
2023/06/04 19:41:35;;;;;;;5.88;3.35;;;16.40;99.90;;;;;;4976531;28;20049;-87
2023/06/04 19:44:01;;;;;;;6.40;3.63;;;16.40;99.90;;;;;;4976573;28;20101;-87
2023/06/04 19:46:26;;;;;;;9.85;3.53;;;16.40;99.90;;;;;;4975676;28;20043;-87
2023/06/04 19:48:52;;;;;;;6.80;3.70;;;16.40;99.90;;;;;;4972226;28;20290;-87
2023/06/04 19:51:20;;;;;;;5.85;3.28;;;16.40;99.90;;;;;;4942670;28;20580;-86
2023/06/04 19:53:46;;;;;;;5.28;3.15;;;16.30;99.90;;;;;;4980467;28;20110;-86
2023/06/04 19:56:12;;;;;;;5.20;2.63;;;16.20;99.90;;;;;;4981182;28;20043;-86
2023/06/04 19:58:38;;;;;;;7.40;3.97;;;16.10;99.90;;;;;;4975334;28;20045;-86
2023/06/04 20:01:04;;;;;;;5.97;3.53;;;16.10;99.90;;;;;;4958111;28;20105;-87
2023/06/04 20:03:32;;;;;;;8.95;3.58;;;16.10;99.90;;;;;;4959410;28;20065;-88
2023/06/04 20:05:57;;;;;;;6.40;3.10;;;16.00;99.90;;;;;;4967477;28;20046;-86
2023/06/04 20:08:23;;;;;;;7.22;4.15;;;15.90;99.90;;;;;;4968308;28;20118;-85
2023/06/04 20:10:50;;;;;;;6.70;3.47;;;15.80;99.90;;;;;;4969911;28;20819;-86
2023/06/04 20:13:15;;;;;;;8.05;3.95;;;15.80;99.90;;;;;;4967232;28;20046;-88
2023/06/04 20:15:41;;;;;;;9.10;3.40;;;15.80;99.90;;;;;;4970838;28;20058;-86
2023/06/04 20:18:07;;;;;;;6.32;3.13;;;15.80;99.90;;;;;;4968152;28;20039;-86
2023/06/04 20:20:33;;;;;;;6.60;2.70;;;15.80;99.90;;;;;;4955013;28;20041;-87
2023/06/04 20:22:58;;;;;;;7.05;2.83;;;15.70;99.90;;;;;;4961644;28;20051;-87
2023/06/04 20:25:24;;;;;;;6.50;2.78;;;15.70;99.90;;;;;;4974231;28;20054;-87
2023/06/04 20:27:50;;;;;;;6.05;2.78;;;15.70;99.90;;;;;;4972524;28;20393;-87
2023/06/04 20:30:17;;;;;;;5.53;2.92;;;15.60;99.90;;;;;;4970047;28;20057;-85
2023/06/04 20:32:43;;;;;;;6.60;3.28;;;15.60;99.90;;;;;;4966167;28;20047;-86
2023/06/04 20:35:09;;;;;;;8.80;3.35;;;15.60;99.90;;;;;;4954772;28;20034;-86
2023/06/04 20:37:38;;;;;;;6.80;3.38;;;15.50;99.90;;;;;;4958238;28;20045;-86
2023/06/04 20:40:05;;;;;;;8.23;3.13;;;15.50;99.90;;;;;;4947255;28;20128;-87
2023/06/04 20:42:30;;;;;;;6.65;3.25;;;15.40;99.90;;;;;;4960727;28;20561;-87
2023/06/04 20:44:56;;;;;;;9.75;3.25;;;15.40;99.90;;;;;;4964464;28;20047;-87
2023/06/04 20:47:22;;;;;;;6.45;3.03;;;15.30;99.90;;;;;;4973704;28;20401;-87
2023/06/04 20:49:49;;;;;;;5.78;2.90;;;15.30;99.90;;;;;;4968991;28;20111;-87
2023/06/04 20:52:15;;;;;;;5.88;3.10;;;15.20;99.90;;;;;;4968348;28;20122;-85
2023/06/04 20:54:40;;;;;;;5.93;3.10;;;15.20;99.90;;;;;;4953954;28;20129;-87
2023/06/04 20:57:06;;;;;;;6.10;3.65;;;15.10;99.90;;;;;;4948991;28;20067;-87
2023/06/04 20:59:34;;;;;;;6.65;2.95;;;15.10;99.90;;;;;;4970813;28;20050;-87
2023/06/04 21:02:00;;;;;;;5.78;3.13;;;15.10;99.90;;;;;;4971170;28;20078;-88
2023/06/04 21:04:26;;;;;;;8.18;3.47;;;15.10;99.90;;;;;;4963619;28;20451;-87
2023/06/04 21:06:51;;;;;;;6.43;2.92;;;15.10;99.90;;;;;;4953066;28;20059;-87
2023/06/04 21:09:19;;;;;;;7.22;3.17;;;15.10;99.90;;;;;;4961530;28;20035;-87
2023/06/04 21:11:45;;;;;;;5.80;3.33;;;15.00;99.90;;;;;;4975457;28;20035;-88
2023/06/04 21:14:11;;;;;;;10.48;3.45;;;15.00;99.90;;;;;;4933786;28;20047;-87
2023/06/04 21:16:36;;;;;;;6.15;3.60;;;15.00;99.90;;;;;;4970488;28;20073;-85
2023/06/04 21:19:02;;;;;;;4.40;2.88;;;14.90;99.90;;;;;;4967272;28;20050;-86
2023/06/04 21:21:28;;;;;;;9.30;3.53;;;14.90;99.90;;;;;;4952068;28;20129;-86
2023/06/04 21:23:56;;;;;;;5.07;3.05;;;14.80;99.90;;;;;;4973649;28;20497;-86
2023/06/04 21:26:21;;;;;;;6.75;4.07;;;14.80;99.90;;;;;;4953573;28;20553;-86
2023/06/04 21:28:47;;;;;;;6.88;3.65;;;14.80;99.90;;;;;;4972954;28;20081;-85
2023/06/04 21:31:14;;;;;;;6.57;3.42;;;14.70;99.90;;;;;;4967353;28;20067;-85
2023/06/04 21:33:40;;;;;;;5.95;3.25;;;14.70;99.90;;;;;;4956407;28;20042;-86
2023/06/04 21:36:06;;;;;;;5.45;3.28;;;14.60;99.90;;;;;;4954922;28;20130;-86
2023/06/04 21:38:33;;;;;;;6.35;3.40;;;14.60;99.90;;;;;;4959942;28;20134;-90
2023/06/04 21:40:58;;;;;;;8.88;3.97;;;14.60;99.90;;;;;;4971984;28;20039;-85
2023/06/04 21:43:24;;;;;;;5.75;3.22;;;14.60;99.90;;;;;;4953158;28;20480;-86
2023/06/04 21:45:50;;;;;;;10.63;4.03;;;14.50;99.90;;;;;;4937802;28;20606;-96
2023/06/04 21:48:16;;;;;;;5.50;3.42;;;14.50;99.90;;;;;;4961443;28;20035;-88
2023/06/04 21:50:42;;;;;;;7.30;3.63;;;14.50;99.90;;;;;;4950809;28;20046;-87
2023/06/04 21:53:07;;;;;;;5.22;3.10;;;14.40;99.90;;;;;;4950856;28;20129;-87
2023/06/04 21:55:36;;;;;;;7.80;3.80;;;14.40;99.90;;;;;;4970875;28;20054;-88
2023/06/04 21:58:03;;;;;;;8.73;3.78;;;14.40;99.90;;;;;;4953971;28;20039;-89
2023/06/04 22:00:29;;;;;;;8.90;4.13;;;14.40;99.90;;;;;;4953628;28;20054;-88
2023/06/04 22:02:54;;;;;;;7.70;3.45;;;14.30;99.90;;;;;;4954562;28;20445;-89
2023/06/04 22:05:20;;;;;;;6.75;3.45;;;14.30;99.90;;;;;;4962765;28;20081;-88
2023/06/04 22:07:46;;;;;;;7.63;4.00;;;14.20;99.90;;;;;;4953031;28;20045;-89
2023/06/04 22:10:12;;;;;;;8.05;3.83;;;14.20;99.90;;;;;;4954784;28;20043;-89